»·PEaware :: N209K KMFR-KBFI

N209K :: KMFR-KBFI

FLIGHT INFORMATION

Flight Status: Arrived
Operator: Privately registered:
United States
More flights under this callsign
Pilot: Anonymous 12234 (12234)
Aircraft: BEECH AIRCRAFT BARON
(BE58)
More flights by this aircraft type
Origin: KMFR Rogue Valley Intl-Medford
United States
Destination: KBFI Boeing Field/King Co Intl
United States
More flights between these airports :: More routes between these airports
Route: OED V23 BTG V495 SEA
File this flight plan on PilotEdge
Remarks:
Altitude:
(Current/Filed)
10,000ft
Speed:
(Current/Filed)
190kts
Departed: 09-Jan-18 04:33 PM
Arrived: 09-Jan-18 06:42 PM
Distance/Time
Traveled:
311nm/2:09
Distance/Time
To Go:
Arrived

Flight Plot

Page will automatically refresh every two minutes.

Flight plan parsing failed; only flown route is shown


Map Options




Map Legend


Flown Route
Filed Route
Departure Airport
Arrival Airport
Navaid (VOR, NDB)
Fix

Horizontal Profiles

Position Reports

Time Latitude Longitude Heading Altitude Ground
Speed
09-Jan-18 16:10 42.372069 -122.876934 204 1336ft 0kts
09-Jan-18 16:11 42.372069 -122.876934 204 1336ft 0kts
09-Jan-18 16:12 42.372069 -122.876934 204 1336ft 0kts
09-Jan-18 16:13 42.372069 -122.876934 204 1336ft 0kts
09-Jan-18 16:14 42.372069 -122.876934 204 1336ft 0kts
09-Jan-18 16:15 42.372069 -122.876934 204 1336ft 0kts
09-Jan-18 16:16 42.372069 -122.876934 205 1336ft 0kts
09-Jan-18 16:17 42.372069 -122.876934 204 1336ft 0kts
09-Jan-18 16:18 42.372069 -122.876934 204 1336ft 0kts
09-Jan-18 16:19 42.372069 -122.876934 204 1336ft 0kts
09-Jan-18 16:20 42.372069 -122.876934 205 1336ft 0kts
09-Jan-18 16:21 42.372069 -122.876934 205 1336ft 0kts
09-Jan-18 16:22 42.372069 -122.876934 205 1336ft 0kts
09-Jan-18 16:23 42.372069 -122.876934 205 1336ft 0kts
09-Jan-18 16:24 42.372069 -122.876934 205 1336ft 0kts
09-Jan-18 16:25 42.372069 -122.876934 205 1336ft 0kts
09-Jan-18 16:26 42.372069 -122.876934 205 1336ft 0kts
09-Jan-18 16:27 42.370702 -122.873753 112 1336ft 10kts
09-Jan-18 16:28 42.370547 -122.873231 111 1336ft 0kts
09-Jan-18 16:29 42.370547 -122.873231 111 1336ft 0kts
09-Jan-18 16:30 42.370547 -122.873231 111 1336ft 0kts
09-Jan-18 16:31 42.368603 -122.871515 159 1336ft 20kts
09-Jan-18 16:32 42.363884 -122.869834 147 1336ft 8kts
09-Jan-18 16:33 42.363849 -122.869583 65 1336ft 0kts
09-Jan-18 16:34 42.363849 -122.869583 65 1336ft 0kts
09-Jan-18 16:35 42.363849 -122.869583 65 1336ft 0kts
09-Jan-18 16:36 42.363840 -122.869031 157 1336ft 7kts
09-Jan-18 16:37 42.363585 -122.868566 79 1336ft 0kts
09-Jan-18 16:38 42.364052 -122.867586 346 1336ft 7kts
09-Jan-18 16:39 42.381575 -122.875923 335 1902ft 123kts
09-Jan-18 16:40 42.413678 -122.892497 332 3427ft 132kts
09-Jan-18 16:41 42.450467 -122.905963 344 4671ft 142kts
09-Jan-18 16:42 42.492324 -122.921421 325 4989ft 176kts
09-Jan-18 16:43 42.530200 -122.951516 346 4963ft 146kts
09-Jan-18 16:44 42.537353 -122.914732 161 4861ft 142kts
09-Jan-18 16:45 42.500776 -122.912401 189 4902ft 131kts
09-Jan-18 16:46 42.469668 -122.927114 268 5743ft 125kts
09-Jan-18 16:47 42.498070 -122.948282 342 6938ft 132kts
09-Jan-18 16:48 42.528805 -122.933699 87 7976ft 156kts
09-Jan-18 16:49 42.498219 -122.910887 186 9014ft 136kts
09-Jan-18 16:50 42.463800 -122.919995 252 9836ft 131kts
09-Jan-18 16:51 42.495284 -122.934372 12 9992ft 185kts
09-Jan-18 16:52 42.545624 -122.923967 337 9986ft 187kts
09-Jan-18 16:53 42.594362 -122.943854 346 9981ft 188kts
09-Jan-18 16:54 42.645102 -122.950651 350 9981ft 186kts
09-Jan-18 16:55 42.693507 -122.957061 348 9981ft 185kts
09-Jan-18 16:56 42.741553 -122.966131 345 9984ft 184kts
09-Jan-18 16:57 42.791318 -122.977976 345 9892ft 185kts
09-Jan-18 16:58 42.841131 -122.989208 345 9904ft 183kts
09-Jan-18 16:59 42.890490 -122.999730 346 9917ft 183kts
09-Jan-18 17:00 42.938955 -123.009330 346 9931ft 183kts
09-Jan-18 17:01 42.986641 -123.018376 346 9942ft 183kts
09-Jan-18 17:02 43.035676 -123.027234 346 9952ft 182kts
09-Jan-18 17:03 43.084484 -123.035770 346 9954ft 182kts
09-Jan-18 17:04 43.129393 -123.043640 346 9954ft 182kts
09-Jan-18 17:05 43.178883 -123.049933 350 9954ft 184kts
09-Jan-18 17:06 43.229097 -123.054162 349 9954ft 183kts
09-Jan-18 17:07 43.279100 -123.059299 349 9954ft 183kts
09-Jan-18 17:08 43.328880 -123.064433 349 9953ft 183kts
09-Jan-18 17:09 43.378464 -123.070041 346 9954ft 182kts
09-Jan-18 17:10 43.427914 -123.078809 346 9954ft 182kts
09-Jan-18 17:11 43.477236 -123.087613 346 9953ft 182kts
09-Jan-18 17:12 43.526336 -123.096412 346 9953ft 182kts
09-Jan-18 17:13 43.576144 -123.105297 346 9948ft 183kts
09-Jan-18 17:14 43.625702 -123.114046 346 9942ft 183kts
09-Jan-18 17:15 43.674996 -123.123767 345 9955ft 183kts
09-Jan-18 17:16 43.724385 -123.133561 345 9954ft 184kts
09-Jan-18 17:17 43.773789 -123.144536 344 9954ft 183kts
09-Jan-18 17:18 43.823107 -123.155538 344 9954ft 184kts
09-Jan-18 17:19 43.872125 -123.166453 344 9953ft 183kts
09-Jan-18 17:20 43.920456 -123.176902 344 9969ft 178kts
09-Jan-18 17:21 43.967741 -123.186730 344 9970ft 176kts
09-Jan-18 17:22 44.011737 -123.195808 344 9970ft 175kts
09-Jan-18 17:23 44.058628 -123.205466 344 9970ft 175kts
09-Jan-18 17:24 44.104794 -123.214967 344 9971ft 175kts
09-Jan-18 17:25 44.149287 -123.210439 5 9972ft 184kts
09-Jan-18 17:26 44.197764 -123.193218 9 9974ft 185kts
09-Jan-18 17:27 44.246319 -123.173419 5 9976ft 184kts
09-Jan-18 17:28 44.295374 -123.156604 7 9976ft 185kts
09-Jan-18 17:29 44.343855 -123.138085 7 9978ft 185kts
09-Jan-18 17:30 44.392013 -123.117471 9 9987ft 185kts
09-Jan-18 17:31 44.440057 -123.096470 8 9997ft 185kts
09-Jan-18 17:32 44.488446 -123.077606 7 10008ft 186kts
09-Jan-18 17:33 44.537435 -123.058510 7 10005ft 187kts
09-Jan-18 17:34 44.586396 -123.040536 6 9999ft 187kts
09-Jan-18 17:35 44.635832 -123.022314 6 9992ft 188kts
09-Jan-18 17:36 44.685140 -123.004022 6 9981ft 189kts
09-Jan-18 17:37 44.735383 -122.985253 6 9972ft 189kts
09-Jan-18 17:38 44.784994 -122.966586 6 9965ft 189kts
09-Jan-18 17:39 44.833452 -122.946665 8 9963ft 191kts
09-Jan-18 17:40 44.883032 -122.925489 7 9963ft 191kts
09-Jan-18 17:41 44.933243 -122.905104 7 9963ft 193kts
09-Jan-18 17:42 44.983535 -122.884690 7 9962ft 194kts
09-Jan-18 17:43 45.033976 -122.864374 7 10010ft 195kts
09-Jan-18 17:44 45.085682 -122.844034 6 10006ft 198kts
09-Jan-18 17:45 45.135677 -122.825635 6 10000ft 199kts
09-Jan-18 17:46 45.187308 -122.806698 6 10000ft 200kts
09-Jan-18 17:47 45.239684 -122.787467 6 10000ft 200kts
09-Jan-18 17:48 45.291825 -122.768280 6 10000ft 200kts
09-Jan-18 17:49 45.342672 -122.749776 6 9996ft 201kts
09-Jan-18 17:50 45.394947 -122.731199 6 9992ft 203kts
09-Jan-18 17:51 45.447165 -122.713278 6 10036ft 199kts
09-Jan-18 17:52 45.494756 -122.695875 6 9984ft 183kts
09-Jan-18 17:53 45.540764 -122.678067 6 9985ft 180kts
09-Jan-18 17:54 45.584913 -122.658316 9 9984ft 183kts
09-Jan-18 17:55 45.631034 -122.637081 8 9983ft 183kts
09-Jan-18 17:56 45.677886 -122.617171 7 9984ft 182kts
09-Jan-18 17:57 45.723299 -122.598125 7 9985ft 182kts
09-Jan-18 17:58 45.767613 -122.589999 357 9986ft 177kts
09-Jan-18 17:59 45.813204 -122.581483 359 9987ft 179kts
09-Jan-18 18:00 45.860485 -122.572104 357 9988ft 179kts
09-Jan-18 18:01 45.905130 -122.564561 357 9988ft 180kts
09-Jan-18 18:02 45.949487 -122.556914 357 9990ft 181kts
09-Jan-18 18:03 45.993038 -122.550430 355 10037ft 180kts
09-Jan-18 18:04 46.036613 -122.544575 357 10038ft 183kts
09-Jan-18 18:05 46.076588 -122.537480 357 10038ft 185kts
09-Jan-18 18:06 46.128868 -122.527240 358 10039ft 186kts
09-Jan-18 18:07 46.163131 -122.520298 358 10039ft 187kts
09-Jan-18 18:08 46.219099 -122.508920 358 10039ft 187kts
09-Jan-18 18:09 46.256499 -122.501290 358 10039ft 187kts
09-Jan-18 18:10 46.314174 -122.489517 358 10039ft 187kts
09-Jan-18 18:11 46.353607 -122.481536 357 10039ft 186kts
09-Jan-18 18:12 46.409722 -122.471756 356 10038ft 186kts
09-Jan-18 18:13 46.451119 -122.465400 356 10026ft 186kts
09-Jan-18 18:14 46.499436 -122.458062 356 10010ft 187kts
09-Jan-18 18:15 46.549245 -122.450568 356 9993ft 187kts
09-Jan-18 18:16 46.598888 -122.443162 356 9986ft 188kts
09-Jan-18 18:17 46.649046 -122.435687 356 9987ft 188kts
09-Jan-18 18:18 46.696360 -122.428610 356 9988ft 187kts
09-Jan-18 18:19 46.742495 -122.421683 356 9988ft 187kts
09-Jan-18 18:20 46.790394 -122.414478 356 10001ft 188kts
09-Jan-18 18:21 46.839022 -122.407401 356 9692ft 194kts
09-Jan-18 18:22 46.887874 -122.401225 356 8899ft 195kts
09-Jan-18 18:23 46.936785 -122.395929 357 8107ft 195kts
09-Jan-18 18:24 46.986254 -122.390483 0 7296ft 194kts
09-Jan-18 18:25 47.036128 -122.384397 2 6464ft 190kts
09-Jan-18 18:26 47.083682 -122.376620 3 5647ft 187kts
09-Jan-18 18:27 47.126088 -122.369269 3 5027ft 178kts
09-Jan-18 18:28 47.168293 -122.373777 344 5019ft 176kts
09-Jan-18 18:29 47.213119 -122.387447 344 5017ft 177kts
09-Jan-18 18:30 47.260206 -122.402071 344 5009ft 177kts
09-Jan-18 18:31 47.304876 -122.416343 344 4990ft 179kts
09-Jan-18 18:32 47.350162 -122.431382 344 4244ft 178kts
09-Jan-18 18:33 47.395370 -122.447128 345 3500ft 180kts
09-Jan-18 18:34 47.439098 -122.463394 345 3003ft 185kts
09-Jan-18 18:35 47.486812 -122.482070 344 2994ft 177kts
09-Jan-18 18:36 47.531252 -122.500173 345 3000ft 167kts
09-Jan-18 18:37 47.572904 -122.517032 345 3000ft 167kts
09-Jan-18 18:38 47.615408 -122.533880 345 2999ft 167kts
09-Jan-18 18:39 47.653844 -122.520434 52 2786ft 158kts
09-Jan-18 18:40 47.678464 -122.474924 65 2175ft 138kts
09-Jan-18 18:41 47.666556 -122.432854 122 2106ft 122kts
09-Jan-18 18:42 47.643756 -122.399161 146 2108ft 124kts
09-Jan-18 18:43 47.615933 -122.375357 147 1734ft 107kts
09-Jan-18 18:44 47.592551 -122.355537 146 1207ft 102kts
09-Jan-18 18:45 47.573102 -122.338980 147 714ft 101kts
09-Jan-18 18:46 47.552411 -122.321500 148 346ft 96kts
09-Jan-18 18:47 47.533438 -122.305323 151 23ft 51kts
09-Jan-18 18:48 47.530717 -122.301061 60 23ft 13kts
09-Jan-18 18:49 47.535736 -122.304383 321 23ft 17kts
09-Jan-18 18:50 47.537108 -122.304957 100 23ft 0kts
09-Jan-18 18:51 47.537108 -122.304957 100 23ft 0kts
09-Jan-18 18:52 47.537108 -122.304957 100 23ft 0kts
09-Jan-18 18:53 47.537108 -122.304957 100 23ft 0kts
09-Jan-18 18:54 47.537108 -122.304957 100 23ft 0kts

Navigation Log

Ident Type
Flight plan parsing failed, navigation log unavailable